Time;durP1;ratioP1;P1;durP2;ratioP2;P2;SDS_P1;SDS_P2;PMS_P1;PMS_P2;Temp;Humidity;BMP_temperature;BMP_pressure;BME280_temperature;BME280_humidity;BME280_pressure;Samples;Min_cycle;Max_cycle;Signal;HPM_P1;HPM_P2
2023/02/01 00:01:22;;;;;;;16.87;6.13;;;6.10;99.90;;;;;;6116684;23;20415;-72
2023/02/01 00:03:49;;;;;;;9.00;4.70;;;6.20;99.90;;;;;;6120757;23;20852;-70
2023/02/01 00:06:16;;;;;;;6.97;4.57;;;6.20;99.90;;;;;;6067176;23;20453;-69
2023/02/01 00:08:43;;;;;;;5.63;4.70;;;6.30;99.90;;;;;;6116163;23;20495;-70
2023/02/01 00:11:12;;;;;;;9.73;6.07;;;6.30;99.90;;;;;;6121505;23;20438;-70
2023/02/01 00:13:42;;;;;;;6.13;3.30;;;6.30;99.90;;;;;;6113575;23;20407;-71
2023/02/01 00:16:11;;;;;;;5.87;4.50;;;6.40;99.90;;;;;;6117076;23;20505;-70
2023/02/01 00:18:39;;;;;;;12.70;6.23;;;6.40;99.90;;;;;;6117734;23;20415;-70
2023/02/01 00:21:06;;;;;;;4.77;3.53;;;6.40;99.90;;;;;;6114840;23;20412;-71
2023/02/01 00:23:34;;;;;;;7.40;5.60;;;6.40;99.90;;;;;;6116620;23;20421;-71
2023/02/01 00:26:02;;;;;;;11.87;4.53;;;6.40;99.90;;;;;;6115665;23;20391;-71
2023/02/01 00:28:30;;;;;;;3.27;2.97;;;6.40;99.90;;;;;;6116571;23;20386;-71
2023/02/01 00:30:57;;;;;;;8.50;3.83;;;6.40;99.90;;;;;;6119926;23;20402;-71
2023/02/01 00:33:25;;;;;;;4.47;3.80;;;6.40;99.90;;;;;;6115294;23;20410;-71
2023/02/01 00:35:52;;;;;;;6.03;3.57;;;6.40;99.90;;;;;;6116324;23;20425;-71
2023/02/01 00:38:19;;;;;;;4.13;3.00;;;6.40;99.90;;;;;;6121474;23;20480;-72
2023/02/01 00:40:46;;;;;;;7.90;4.80;;;6.40;99.90;;;;;;6119112;23;20722;-71
2023/02/01 00:43:13;;;;;;;3.47;2.70;;;6.40;99.90;;;;;;6118585;23;20451;-71
2023/02/01 00:45:41;;;;;;;5.80;4.40;;;6.40;99.90;;;;;;6119951;23;20482;-71
2023/02/01 00:48:08;;;;;;;4.07;3.77;;;6.40;99.90;;;;;;6120473;23;20381;-71
2023/02/01 00:50:35;;;;;;;16.63;3.23;;;6.50;99.90;;;;;;6117241;23;20480;-72
2023/02/01 00:53:02;;;;;;;6.17;2.53;;;6.50;99.90;;;;;;6121561;23;20923;-72
2023/02/01 00:55:29;;;;;;;2.83;2.37;;;6.50;99.90;;;;;;6124806;23;20433;-71
2023/02/01 00:57:56;;;;;;;6.00;2.50;;;6.50;99.90;;;;;;6124216;23;20423;-72
2023/02/01 01:00:23;;;;;;;2.63;1.67;;;6.50;99.90;;;;;;6121452;23;20464;-71
2023/02/01 01:02:51;;;;;;;20.60;3.57;;;6.50;99.90;;;;;;6114904;23;20422;-71
2023/02/01 01:05:19;;;;;;;1.13;1.00;;;6.50;99.90;;;;;;6120959;23;20412;-71
2023/02/01 01:07:46;;;;;;;3.90;2.33;;;6.50;99.90;;;;;;6115791;23;20411;-71
2023/02/01 01:10:15;;;;;;;3.27;1.80;;;6.60;99.90;;;;;;6119270;23;20726;-71
2023/02/01 01:12:41;;;;;;;16.80;2.10;;;6.60;99.90;;;;;;6114729;23;20467;-71
2023/02/01 01:15:09;;;;;;;19.97;3.10;;;6.60;99.90;;;;;;6068065;23;20385;-72
2023/02/01 01:17:36;;;;;;;3.27;2.07;;;6.60;99.90;;;;;;6124107;23;20477;-72
2023/02/01 01:20:05;;;;;;;8.23;2.57;;;6.60;99.90;;;;;;6088885;23;20374;-72
2023/02/01 01:22:32;;;;;;;1.80;1.60;;;6.60;99.90;;;;;;6117159;23;20421;-71
2023/02/01 01:24:59;;;;;;;2.00;1.80;;;6.60;99.90;;;;;;6115517;23;20513;-72
2023/02/01 01:27:26;;;;;;;4.60;1.70;;;6.60;99.90;;;;;;6119809;23;20421;-72
2023/02/01 01:29:53;;;;;;;3.17;2.00;;;6.60;99.90;;;;;;6116196;23;20734;-72
2023/02/01 01:32:20;;;;;;;16.53;2.93;;;6.60;99.90;;;;;;6116954;23;20939;-72
2023/02/01 01:34:46;;;;;;;5.20;2.30;;;6.60;99.90;;;;;;6116351;23;20386;-72
2023/02/01 01:37:15;;;;;;;3.57;1.67;;;6.70;99.90;;;;;;6116488;23;20777;-72
2023/02/01 01:39:42;;;;;;;4.77;2.37;;;6.70;99.90;;;;;;6116416;23;20390;-72
2023/02/01 01:42:13;;;;;;;5.07;2.70;;;6.70;99.90;;;;;;6117321;23;20470;-72
2023/02/01 01:45:03;;;;;;;2.27;1.73;;;6.70;99.90;;;;;;6118244;23;20374;-72
2023/02/01 01:47:36;;;;;;;24.00;2.60;;;6.70;99.90;;;;;;6119788;23;20392;-72
2023/02/01 01:50:05;;;;;;;5.30;2.00;;;6.70;99.90;;;;;;6114027;23;20395;-72
2023/02/01 01:52:33;;;;;;;9.67;2.20;;;6.60;99.90;;;;;;6119483;23;20487;-72
2023/02/01 01:55:01;;;;;;;3.27;2.67;;;6.60;99.90;;;;;;6118035;23;20410;-72
2023/02/01 01:57:33;;;;;;;4.97;2.63;;;6.60;99.90;;;;;;6121855;23;20797;-71
2023/02/01 02:00:06;;;;;;;8.63;1.53;;;6.60;99.90;;;;;;6118658;23;20387;-71
2023/02/01 02:02:33;;;;;;;12.20;2.23;;;6.70;99.90;;;;;;6127212;23;20593;-72
2023/02/01 02:05:01;;;;;;;3.97;2.30;;;6.70;99.90;;;;;;6117137;23;20497;-72
2023/02/01 02:07:34;;;;;;;13.87;2.90;;;6.60;99.90;;;;;;6119562;23;20454;-72
2023/02/01 02:10:02;;;;;;;4.53;2.77;;;6.60;99.90;;;;;;6118500;23;20445;-72
2023/02/01 02:12:29;;;;;;;6.10;2.80;;;6.60;99.90;;;;;;6110319;23;20418;-72
2023/02/01 02:14:57;;;;;;;5.50;2.03;;;6.60;99.90;;;;;;6117717;23;20497;-72
2023/02/01 02:17:36;;;;;;;11.00;2.40;;;6.50;99.90;;;;;;6113304;23;20384;-72
2023/02/01 02:20:31;;;;;;;5.80;2.17;;;6.60;99.90;;;;;;6119290;23;20480;-72
2023/02/01 02:23:26;;;;;;;7.03;1.90;;;6.60;99.90;;;;;;6115780;23;20441;-71
2023/02/01 02:26:29;;;;;;;7.63;3.33;;;6.60;99.90;;;;;;6117970;23;20485;-71
2023/02/01 02:29:49;;;;;;;6.10;2.40;;;6.60;99.90;;;;;;6018007;23;21058;-71
2023/02/01 02:32:41;;;;;;;5.50;1.70;;;6.60;99.90;;;;;;6117289;23;20433;-72
2023/02/01 02:35:17;;;;;;;3.70;2.53;;;6.60;99.90;;;;;;6096001;23;20425;-72
2023/02/01 02:37:53;;;;;;;9.90;2.17;;;6.60;99.90;;;;;;6119412;23;20390;-71
2023/02/01 02:40:29;;;;;;;5.83;2.43;;;6.50;99.90;;;;;;6117259;23;20416;-72
2023/02/01 02:48:45;;;;;;;4.40;1.73;;;6.60;99.90;;;;;;6116099;23;20356;-72
2023/02/01 03:05:08;;;;;;;6.83;2.87;;;6.50;99.90;;;;;;6116202;23;20761;-71
2023/02/01 03:08:04;;;;;;;4.23;2.43;;;6.50;99.90;;;;;;6114630;23;20390;-71
2023/02/01 03:10:39;;;;;;;9.97;2.07;;;6.50;99.90;;;;;;6120356;23;20385;-71
2023/02/01 03:13:09;;;;;;;6.10;2.40;;;6.50;99.90;;;;;;6125271;23;20895;-71
2023/02/01 03:15:41;;;;;;;1.20;1.00;;;6.50;99.90;;;;;;6118498;23;20957;-72
2023/02/01 03:18:17;;;;;;;2.93;2.00;;;6.50;99.90;;;;;;6118196;23;20445;-72
2023/02/01 03:20:48;;;;;;;4.10;1.43;;;6.50;99.90;;;;;;6117046;23;20448;-72
2023/02/01 03:23:20;;;;;;;7.70;1.80;;;6.50;99.90;;;;;;6119609;23;20405;-71
2023/02/01 03:25:49;;;;;;;1.60;1.50;;;6.50;99.90;;;;;;6119687;23;20926;-72
2023/02/01 03:28:20;;;;;;;14.03;2.30;;;6.40;99.90;;;;;;6118063;23;20783;-72
2023/02/01 03:30:48;;;;;;;5.73;1.90;;;6.50;99.90;;;;;;6119076;23;20410;-71
2023/02/01 03:33:22;;;;;;;3.20;1.60;;;6.50;99.90;;;;;;6120121;23;20451;-71
2023/02/01 03:35:55;;;;;;;5.13;1.83;;;6.50;99.90;;;;;;6120308;23;20861;-72
2023/02/01 03:38:27;;;;;;;4.57;3.90;;;6.40;99.90;;;;;;6116440;23;20366;-72
2023/02/01 03:40:59;;;;;;;2.27;2.07;;;6.40;99.90;;;;;;6117102;23;20425;-72
2023/02/01 03:43:31;;;;;;;4.00;1.43;;;6.40;99.90;;;;;;6119529;23;20486;-70
2023/02/01 03:46:03;;;;;;;4.00;1.63;;;6.40;99.90;;;;;;6118196;23;20715;-72
2023/02/01 03:48:31;;;;;;;3.73;1.30;;;6.40;99.90;;;;;;6119920;23;20477;-72
2023/02/01 03:51:01;;;;;;;4.70;2.57;;;6.50;99.90;;;;;;6091419;23;21299;-72
2023/02/01 03:53:32;;;;;;;3.90;1.73;;;6.40;99.90;;;;;;6132313;23;20410;-71
2023/02/01 03:55:59;;;;;;;4.43;1.73;;;6.40;99.90;;;;;;6120708;23;20397;-71
2023/02/01 03:58:26;;;;;;;17.13;1.87;;;6.40;99.90;;;;;;6118434;23;20805;-72
2023/02/01 04:00:57;;;;;;;5.33;2.17;;;6.30;99.90;;;;;;6118570;23;20438;-72
2023/02/01 04:03:26;;;;;;;8.03;2.80;;;6.30;99.90;;;;;;6120380;23;20450;-72
2023/02/01 04:05:53;;;;;;;5.00;2.47;;;6.30;99.90;;;;;;6119477;23;20411;-72
2023/02/01 04:08:21;;;;;;;3.50;1.83;;;6.20;99.90;;;;;;6063653;23;20981;-71
2023/02/01 04:10:50;;;;;;;11.73;2.20;;;6.20;99.90;;;;;;6117163;23;20461;-72
2023/02/01 04:13:17;;;;;;;4.60;2.27;;;6.30;99.90;;;;;;6117332;23;20889;-72
2023/02/01 04:15:45;;;;;;;5.57;2.13;;;6.20;99.90;;;;;;6119221;23;20449;-72
2023/02/01 04:18:12;;;;;;;1.30;1.20;;;6.20;99.90;;;;;;6115569;23;20480;-72
2023/02/01 04:20:39;;;;;;;8.77;2.10;;;6.40;99.90;;;;;;6113516;23;20719;-72
2023/02/01 04:23:06;;;;;;;2.13;1.93;;;6.40;99.90;;;;;;6115460;23;20411;-71
2023/02/01 04:25:33;;;;;;;1.40;1.30;;;6.40;99.90;;;;;;6116326;23;20771;-71
2023/02/01 04:28:01;;;;;;;4.30;2.30;;;6.30;99.90;;;;;;6114915;23;20386;-72
2023/02/01 04:30:29;;;;;;;5.27;2.17;;;6.30;99.90;;;;;;6118388;23;20411;-71
2023/02/01 04:32:56;;;;;;;13.90;3.40;;;6.40;99.90;;;;;;6114677;23;20470;-72
2023/02/01 04:35:23;;;;;;;2.30;1.90;;;6.40;99.90;;;;;;6110043;23;20443;-72
2023/02/01 04:37:50;;;;;;;4.00;1.97;;;6.50;99.90;;;;;;6110002;23;20508;-71
2023/02/01 04:40:17;;;;;;;4.33;1.93;;;6.50;99.90;;;;;;6110692;23;20512;-71
2023/02/01 04:42:44;;;;;;;21.37;2.97;;;6.50;99.90;;;;;;6107564;23;20505;-71
2023/02/01 04:45:14;;;;;;;20.00;2.57;;;6.40;99.90;;;;;;6062889;23;20814;-71
2023/02/01 04:47:41;;;;;;;2.00;1.63;;;6.40;99.90;;;;;;6124933;23;20386;-72
2023/02/01 04:50:10;;;;;;;6.07;2.30;;;6.40;99.90;;;;;;6118977;23;21132;-70
2023/02/01 04:52:37;;;;;;;9.10;2.07;;;6.40;99.90;;;;;;6119215;23;20519;-71
2023/02/01 04:55:06;;;;;;;4.50;2.07;;;6.30;99.90;;;;;;6117873;23;20958;-71
2023/02/01 04:57:33;;;;;;;3.00;1.37;;;6.40;99.90;;;;;;6117404;23;20385;-71
2023/02/01 05:00:00;;;;;;;5.40;1.50;;;6.40;99.90;;;;;;6114269;23;20465;-71
2023/02/01 05:02:28;;;;;;;7.73;1.70;;;6.40;99.90;;;;;;6079011;23;20425;-71
2023/02/01 05:04:55;;;;;;;6.30;2.60;;;6.40;99.90;;;;;;6112048;23;20424;-70
2023/02/01 05:07:22;;;;;;;1.93;1.60;;;6.40;99.90;;;;;;6111664;23;20421;-71
2023/02/01 05:09:49;;;;;;;4.07;2.20;;;6.40;99.90;;;;;;6117212;23;20416;-70
2023/02/01 05:15:09;;;;;;;7.03;1.70;;;6.40;99.90;;;;;;6055118;23;20366;-71
2023/02/01 05:17:42;;;;;;;2.00;1.23;;;6.40;99.90;;;;;;6116839;23;20448;-71
2023/02/01 05:20:10;;;;;;;5.47;2.07;;;6.40;99.90;;;;;;6110296;23;21155;-71
2023/02/01 05:22:37;;;;;;;11.63;1.90;;;6.30;99.90;;;;;;6119996;23;20484;-72
2023/02/01 05:25:05;;;;;;;12.40;2.30;;;6.50;99.90;;;;;;6120130;23;20447;-72
2023/02/01 05:27:32;;;;;;;3.83;3.23;;;6.40;99.90;;;;;;6118666;23;20410;-71
2023/02/01 05:29:59;;;;;;;6.93;1.63;;;6.30;99.90;;;;;;6111553;23;20389;-71
2023/02/01 05:32:26;;;;;;;7.40;2.87;;;6.30;99.90;;;;;;6111827;23;20431;-71
2023/02/01 05:34:54;;;;;;;6.50;2.17;;;6.30;99.90;;;;;;6112677;23;20421;-71
2023/02/01 05:37:21;;;;;;;4.50;2.20;;;6.30;99.90;;;;;;6113651;23;20983;-71
2023/02/01 05:39:48;;;;;;;2.40;1.87;;;6.40;99.90;;;;;;6112346;23;21214;-73
2023/02/01 05:42:15;;;;;;;5.33;2.50;;;6.30;99.90;;;;;;6114501;23;20444;-71
2023/02/01 05:44:42;;;;;;;9.70;1.87;;;6.30;99.90;;;;;;6123240;23;20488;-72
2023/02/01 05:47:09;;;;;;;11.80;2.53;;;6.20;99.90;;;;;;6121169;23;20457;-72
2023/02/01 05:49:36;;;;;;;5.37;4.17;;;6.20;99.90;;;;;;6124092;23;20464;-71
2023/02/01 05:52:05;;;;;;;2.40;1.60;;;6.30;99.90;;;;;;6112133;23;20623;-71
2023/02/01 05:54:32;;;;;;;13.27;1.83;;;6.30;99.90;;;;;;6110424;23;20385;-72
2023/02/01 05:56:59;;;;;;;2.70;1.87;;;6.30;99.90;;;;;;6113790;23;20497;-73
2023/02/01 05:59:26;;;;;;;1.87;1.77;;;6.20;99.90;;;;;;6114562;23;20411;-71
2023/02/01 06:01:54;;;;;;;2.43;1.77;;;6.20;99.90;;;;;;6118107;23;20402;-71
2023/02/01 06:04:21;;;;;;;2.50;1.30;;;6.10;99.90;;;;;;6119641;23;20447;-72
2023/02/01 06:06:50;;;;;;;17.40;3.23;;;6.10;99.90;;;;;;6119710;23;20391;-71
2023/02/01 06:09:18;;;;;;;5.63;3.23;;;6.20;99.90;;;;;;6116181;23;20427;-71
2023/02/01 06:11:45;;;;;;;9.33;1.57;;;6.10;99.90;;;;;;6118671;23;20460;-71
2023/02/01 06:14:12;;;;;;;2.37;2.17;;;6.20;99.90;;;;;;6117433;23;20429;-71
2023/02/01 06:16:39;;;;;;;3.30;1.43;;;6.10;99.90;;;;;;6117398;23;20436;-72
2023/02/01 06:19:06;;;;;;;5.03;1.87;;;6.20;99.90;;;;;;6118984;23;20623;-71
2023/02/01 06:21:34;;;;;;;2.13;1.40;;;6.20;99.90;;;;;;6118347;23;20436;-71
2023/02/01 06:24:00;;;;;;;3.77;1.57;;;6.20;99.90;;;;;;6119188;23;20428;-71
2023/02/01 06:26:33;;;;;;;3.37;2.20;;;6.20;99.90;;;;;;6123058;23;20378;-72
2023/02/01 06:29:00;;;;;;;2.57;1.90;;;6.20;99.90;;;;;;6119633;23;20383;-72
2023/02/01 06:31:27;;;;;;;3.73;2.47;;;6.20;99.90;;;;;;6118238;23;20435;-73
2023/02/01 06:33:54;;;;;;;6.23;2.27;;;6.20;99.90;;;;;;6117302;23;20435;-72
2023/02/01 06:36:21;;;;;;;4.53;2.33;;;6.20;99.90;;;;;;6121096;23;20623;-71
2023/02/01 06:38:48;;;;;;;4.13;2.23;;;6.20;99.90;;;;;;6128397;23;20420;-72
2023/02/01 06:41:16;;;;;;;2.13;1.27;;;6.20;99.90;;;;;;6122847;23;20530;-72
2023/02/01 06:43:46;;;;;;;5.37;1.87;;;6.20;99.90;;;;;;6116927;23;20735;-71
2023/02/01 06:46:14;;;;;;;3.10;1.50;;;6.20;99.90;;;;;;6121547;23;20366;-72
2023/02/01 06:48:41;;;;;;;10.83;3.30;;;6.30;99.90;;;;;;6117681;23;20428;-72
2023/02/01 06:51:22;;;;;;;2.83;2.00;;;6.20;99.90;;;;;;6121154;23;20456;-71
2023/02/01 06:53:49;;;;;;;9.83;2.10;;;6.20;99.90;;;;;;6119466;23;20378;-72
2023/02/01 06:56:16;;;;;;;5.17;1.77;;;6.30;99.90;;;;;;6119846;23;20410;-71
2023/02/01 06:58:46;;;;;;;1.77;1.33;;;6.30;99.90;;;;;;6121144;23;20453;-71
2023/02/01 07:01:15;;;;;;;5.30;2.30;;;6.20;99.90;;;;;;6119364;23;20409;-72
2023/02/01 07:03:43;;;;;;;5.93;1.90;;;6.20;99.90;;;;;;6120509;23;20461;-72
2023/02/01 07:06:12;;;;;;;2.70;1.50;;;6.20;99.90;;;;;;6123067;23;20457;-71
2023/02/01 07:08:39;;;;;;;1.77;1.57;;;6.30;99.90;;;;;;6121739;23;20475;-72
2023/02/01 07:11:07;;;;;;;1.87;1.67;;;6.20;99.90;;;;;;6119715;23;20427;-71
2023/02/01 07:13:35;;;;;;;2.23;1.07;;;6.20;99.90;;;;;;6118967;23;20493;-71
2023/02/01 07:16:05;;;;;;;10.97;1.97;;;6.20;99.90;;;;;;6121894;23;20817;-71
2023/02/01 07:18:32;;;;;;;5.37;2.80;;;6.20;99.90;;;;;;6119483;23;20421;-72
2023/02/01 07:21:00;;;;;;;7.40;2.10;;;6.20;99.90;;;;;;6122549;23;20413;-72
2023/02/01 07:23:27;;;;;;;2.20;1.47;;;6.30;99.90;;;;;;6127100;23;20500;-72
2023/02/01 07:25:55;;;;;;;1.00;0.90;;;6.30;99.90;;;;;;6121937;23;20760;-73
2023/02/01 07:28:23;;;;;;;4.47;1.70;;;6.30;99.90;;;;;;6121980;23;20432;-71
2023/02/01 07:30:50;;;;;;;3.23;1.23;;;6.40;99.90;;;;;;6122135;23;20457;-72
2023/02/01 07:33:20;;;;;;;3.47;2.67;;;6.40;99.90;;;;;;6126474;23;20386;-72
2023/02/01 07:35:47;;;;;;;11.13;2.67;;;6.40;99.90;;;;;;6129281;23;20427;-72
2023/02/01 07:38:14;;;;;;;3.80;1.87;;;6.40;99.90;;;;;;6123421;23;20665;-72
2023/02/01 07:40:42;;;;;;;3.67;2.40;;;6.40;99.90;;;;;;6123210;23;20440;-72
2023/02/01 07:43:09;;;;;;;4.23;1.80;;;6.40;99.90;;;;;;6127863;23;20414;-73
2023/02/01 07:45:40;;;;;;;7.13;1.50;;;6.30;99.90;;;;;;6133798;23;20420;-73
2023/02/01 07:48:07;;;;;;;2.17;1.30;;;6.40;99.90;;;;;;6128103;23;20477;-73
2023/02/01 07:50:35;;;;;;;2.50;2.30;;;6.40;99.90;;;;;;6120038;23;20411;-72
2023/02/01 07:53:07;;;;;;;3.97;1.67;;;6.50;99.90;;;;;;6119991;23;20393;-72
2023/02/01 07:55:34;;;;;;;3.97;1.77;;;6.50;99.90;;;;;;6124817;23;20433;-72
2023/02/01 07:58:01;;;;;;;18.70;3.60;;;6.50;99.90;;;;;;6125597;23;20393;-71
2023/02/01 08:03:12;;;;;;;2.07;1.97;;;6.40;99.90;;;;;;6121008;23;20353;-71
2023/02/01 08:05:41;;;;;;;5.10;3.80;;;6.40;99.90;;;;;;6119666;23;21020;-71
2023/02/01 08:08:08;;;;;;;1.67;1.20;;;6.40;99.90;;;;;;6120702;23;20458;-71
2023/02/01 08:10:35;;;;;;;5.30;4.40;;;6.40;99.90;;;;;;6119886;23;21098;-71
2023/02/01 08:13:03;;;;;;;6.10;2.57;;;6.40;99.90;;;;;;6121214;23;20396;-71
2023/02/01 08:15:31;;;;;;;3.53;2.17;;;6.40;99.90;;;;;;6121892;23;20461;-72
2023/02/01 08:17:58;;;;;;;12.93;2.20;;;6.40;99.90;;;;;;6121593;23;20424;-72
2023/02/01 08:20:26;;;;;;;4.07;1.97;;;6.40;99.90;;;;;;6120168;23;20480;-72
2023/02/01 08:22:57;;;;;;;4.77;2.43;;;6.30;99.90;;;;;;6126041;23;20407;-71
2023/02/01 08:25:24;;;;;;;3.20;1.87;;;6.40;99.90;;;;;;6122224;23;20500;-72
2023/02/01 08:27:53;;;;;;;1.90;1.43;;;6.40;99.90;;;;;;6101817;23;20409;-70
2023/02/01 08:30:20;;;;;;;10.63;2.60;;;6.40;99.90;;;;;;6130642;23;20892;-72
2023/02/01 08:32:47;;;;;;;11.50;2.73;;;6.50;99.90;;;;;;6125179;23;20409;-72
2023/02/01 08:35:15;;;;;;;5.60;2.67;;;6.50;99.90;;;;;;6117998;23;20411;-71
2023/02/01 08:37:42;;;;;;;3.63;3.33;;;6.50;99.90;;;;;;6120936;23;20385;-72
2023/02/01 08:40:13;;;;;;;12.60;2.50;;;6.50;99.90;;;;;;6121063;23;20477;-71
2023/02/01 08:42:52;;;;;;;8.43;3.27;;;6.50;99.90;;;;;;6120743;23;20428;-71
2023/02/01 08:45:20;;;;;;;4.70;2.30;;;6.60;99.90;;;;;;6121777;23;20427;-71
2023/02/01 08:47:47;;;;;;;3.67;2.17;;;6.60;99.90;;;;;;6118187;23;20382;-71
2023/02/01 08:50:15;;;;;;;3.53;2.10;;;6.60;99.90;;;;;;6117490;23;20426;-73
2023/02/01 08:52:42;;;;;;;5.90;1.73;;;6.60;99.90;;;;;;6121512;23;20437;-72
2023/02/01 08:55:11;;;;;;;2.80;1.67;;;6.60;99.90;;;;;;6119854;23;20428;-72
2023/02/01 08:57:39;;;;;;;3.63;1.83;;;6.60;99.90;;;;;;6117922;23;20930;-72
2023/02/01 09:00:08;;;;;;;9.13;2.00;;;6.60;99.90;;;;;;6121407;23;20780;-72
2023/02/01 09:02:35;;;;;;;6.43;2.47;;;6.70;99.90;;;;;;6122015;23;20405;-72
2023/02/01 09:05:03;;;;;;;5.47;1.83;;;6.70;99.90;;;;;;6119353;23;20422;-72
2023/02/01 09:07:30;;;;;;;5.47;3.13;;;6.70;99.90;;;;;;6118615;23;20428;-72
2023/02/01 09:10:00;;;;;;;4.00;2.60;;;6.70;99.90;;;;;;6121620;23;20492;-72
2023/02/01 09:12:31;;;;;;;2.73;2.13;;;6.70;99.90;;;;;;6119282;23;20417;-71
2023/02/01 09:14:59;;;;;;;4.60;1.93;;;6.60;99.90;;;;;;6119423;23;20501;-71
2023/02/01 09:17:26;;;;;;;6.60;1.97;;;6.70;99.90;;;;;;6115649;23;20476;-71
2023/02/01 09:19:53;;;;;;;7.03;3.07;;;6.80;99.90;;;;;;6120936;23;20927;-71
2023/02/01 09:22:20;;;;;;;2.47;2.27;;;6.80;99.90;;;;;;6118099;23;20402;-72
2023/02/01 09:24:47;;;;;;;2.70;2.30;;;6.80;99.90;;;;;;6119898;23;20934;-71
2023/02/01 09:27:14;;;;;;;5.43;2.30;;;6.90;99.90;;;;;;6130880;23;20409;-72
2023/02/01 09:29:43;;;;;;;2.73;2.53;;;6.80;99.90;;;;;;6067705;23;20407;-72
2023/02/01 09:32:10;;;;;;;4.77;3.70;;;6.90;99.90;;;;;;6121565;23;20647;-71
2023/02/01 09:34:37;;;;;;;3.40;2.63;;;6.80;99.90;;;;;;6118646;23;20619;-72
2023/02/01 09:37:05;;;;;;;9.50;2.07;;;6.90;99.90;;;;;;6119683;23;20461;-72
2023/02/01 09:39:32;;;;;;;11.60;3.10;;;6.80;99.90;;;;;;6124069;23;20392;-72
2023/02/01 09:42:08;;;;;;;7.33;2.67;;;6.90;99.90;;;;;;6124297;23;20414;-72
2023/02/01 09:44:54;;;;;;;4.30;3.70;;;7.10;99.90;;;;;;6115136;23;20369;-71
2023/02/01 09:47:24;;;;;;;8.30;2.87;;;7.20;99.90;;;;;;6120174;23;20394;-72
2023/02/01 09:49:59;;;;;;;4.23;1.97;;;7.20;99.90;;;;;;6119692;23;20413;-72
2023/02/01 09:52:32;;;;;;;5.47;2.63;;;7.10;99.90;;;;;;6092851;23;20578;-72
2023/02/01 09:55:03;;;;;;;5.53;2.67;;;7.10;99.90;;;;;;6117011;23;20386;-72
2023/02/01 09:57:42;;;;;;;7.43;2.70;;;7.20;99.90;;;;;;6122474;23;20408;-72
2023/02/01 10:00:21;;;;;;;3.20;1.87;;;7.10;99.90;;;;;;6120415;23;20836;-72
2023/02/01 10:02:48;;;;;;;8.10;2.53;;;7.10;99.90;;;;;;6121011;23;20431;-71
2023/02/01 10:05:19;;;;;;;6.37;3.37;;;7.10;99.90;;;;;;6118827;23;21041;-71
2023/02/01 10:07:55;;;;;;;14.93;3.40;;;7.10;99.90;;;;;;6120421;23;20428;-71
2023/02/01 10:10:29;;;;;;;8.90;3.40;;;7.10;99.90;;;;;;6120593;23;20405;-71
2023/02/01 10:13:32;;;;;;;5.00;3.20;;;7.30;99.90;;;;;;6119773;23;20719;-71
2023/02/01 10:16:17;;;;;;;2.13;1.93;;;7.40;99.90;;;;;;6113412;23;20747;-72
2023/02/01 10:19:04;;;;;;;3.80;2.80;;;7.20;99.90;;;;;;6121436;23;20507;-73
2023/02/01 10:21:47;;;;;;;5.27;3.23;;;7.20;99.90;;;;;;6120317;23;20420;-71
2023/02/01 10:24:40;;;;;;;3.63;3.33;;;7.30;99.90;;;;;;6124070;23;20989;-72
2023/02/01 10:27:15;;;;;;;6.13;3.67;;;7.40;99.90;;;;;;6120852;23;20451;-71
2023/02/01 10:29:45;;;;;;;2.37;2.17;;;7.40;99.90;;;;;;6119321;23;20396;-73
2023/02/01 10:32:17;;;;;;;2.47;2.27;;;7.30;99.90;;;;;;6121455;23;20488;-71
2023/02/01 10:34:49;;;;;;;15.73;2.47;;;7.30;99.90;;;;;;6118788;23;20767;-71
2023/02/01 10:37:27;;;;;;;4.70;2.17;;;7.30;99.90;;;;;;6120655;23;20606;-72
2023/02/01 10:39:55;;;;;;;5.17;3.07;;;7.20;99.90;;;;;;6120911;23;20399;-71
2023/02/01 10:42:26;;;;;;;3.47;2.53;;;7.30;99.90;;;;;;6120563;23;20493;-71
2023/02/01 10:44:57;;;;;;;2.47;1.70;;;7.40;99.90;;;;;;6064923;23;20733;-72
2023/02/01 10:47:25;;;;;;;4.13;3.13;;;7.20;99.90;;;;;;6119590;23;20417;-73
2023/02/01 10:49:59;;;;;;;3.90;3.10;;;7.10;99.90;;;;;;6120797;23;20439;-72
2023/02/01 10:52:40;;;;;;;4.07;2.70;;;7.10;99.90;;;;;;6127211;23;20431;-72
2023/02/01 10:55:43;;;;;;;5.73;2.97;;;7.20;99.90;;;;;;6118896;23;21005;-72
2023/02/01 10:58:17;;;;;;;3.87;2.00;;;7.20;99.90;;;;;;6001603;23;20401;-71
2023/02/01 11:00:49;;;;;;;4.03;3.63;;;7.20;99.90;;;;;;6098632;23;20464;-71
2023/02/01 11:03:37;;;;;;;3.73;2.40;;;7.20;99.90;;;;;;6120348;23;20509;-72
2023/02/01 11:06:18;;;;;;;5.17;2.83;;;7.20;99.90;;;;;;6121212;23;20405;-72
2023/02/01 11:08:49;;;;;;;8.73;2.30;;;7.30;99.90;;;;;;6119940;23;20389;-71
2023/02/01 11:11:16;;;;;;;2.77;1.80;;;7.30;99.90;;;;;;6120763;23;20441;-72
2023/02/01 11:13:44;;;;;;;4.80;4.30;;;7.30;99.90;;;;;;6120451;23;20755;-72
2023/02/01 11:16:15;;;;;;;6.10;2.90;;;7.30;99.90;;;;;;6121463;23;20617;-71
2023/02/01 11:18:46;;;;;;;8.97;4.80;;;7.30;99.90;;;;;;6129909;23;20383;-72
2023/02/01 11:21:15;;;;;;;2.20;2.00;;;7.30;99.90;;;;;;6122060;23;20405;-72
2023/02/01 11:23:45;;;;;;;5.20;2.10;;;7.30;99.90;;;;;;6118642;23;20412;-72
2023/02/01 11:26:15;;;;;;;2.33;1.73;;;7.20;99.90;;;;;;6118916;23;21139;-71
2023/02/01 11:28:53;;;;;;;3.80;3.60;;;7.20;99.90;;;;;;6115046;23;20476;-72
2023/02/01 11:31:21;;;;;;;17.07;4.63;;;7.30;99.90;;;;;;6119857;23;20430;-72
2023/02/01 11:33:53;;;;;;;11.70;2.63;;;7.30;99.90;;;;;;6120832;23;20428;-71
2023/02/01 11:36:26;;;;;;;4.40;2.17;;;7.40;99.90;;;;;;6117260;23;21210;-72
2023/02/01 11:38:55;;;;;;;1.40;1.30;;;7.50;99.90;;;;;;6120813;23;20378;-71
2023/02/01 11:41:27;;;;;;;4.60;2.80;;;7.70;99.90;;;;;;6121848;23;20402;-71
2023/02/01 11:43:58;;;;;;;5.17;2.17;;;7.70;99.90;;;;;;6122320;23;20420;-72
2023/02/01 11:46:31;;;;;;;5.10;2.43;;;7.60;99.90;;;;;;6118930;23;20445;-72
2023/02/01 11:49:20;;;;;;;5.67;2.60;;;7.60;99.90;;;;;;6120746;23;20798;-71
2023/02/01 11:51:56;;;;;;;12.30;4.00;;;7.60;99.90;;;;;;6123154;23;20433;-71
2023/02/01 11:54:40;;;;;;;4.80;2.97;;;7.60;99.90;;;;;;6121711;23;20420;-71
2023/02/01 11:57:29;;;;;;;4.40;2.77;;;7.60;99.90;;;;;;6067720;23;20432;-71
2023/02/01 12:00:24;;;;;;;2.10;1.83;;;7.60;99.90;;;;;;6121965;23;20370;-72
2023/02/01 12:03:14;;;;;;;1.93;1.73;;;7.60;99.90;;;;;;6121220;23;20831;-71
2023/02/01 12:05:51;;;;;;;4.80;3.00;;;7.50;99.90;;;;;;6119353;23;20406;-72
2023/02/01 12:08:42;;;;;;;9.83;3.33;;;7.30;99.90;;;;;;6118684;23;20374;-71
2023/02/01 12:11:30;;;;;;;10.23;3.20;;;7.10;99.90;;;;;;6121651;23;20402;-72
2023/02/01 12:14:06;;;;;;;4.27;2.97;;;7.00;99.90;;;;;;6128781;23;20374;-71
2023/02/01 12:16:44;;;;;;;3.43;1.80;;;6.90;99.90;;;;;;6127972;23;20385;-72
2023/02/01 12:19:24;;;;;;;4.80;2.73;;;6.90;99.90;;;;;;6122381;23;20437;-71
2023/02/01 12:22:14;;;;;;;14.83;2.90;;;6.70;99.90;;;;;;6125164;23;20452;-71
2023/02/01 12:25:06;;;;;;;5.67;2.73;;;6.80;99.90;;;;;;6124388;23;20393;-72
2023/02/01 12:27:57;;;;;;;9.10;3.00;;;6.80;99.90;;;;;;6122198;23;20409;-71
2023/02/01 12:30:54;;;;;;;4.30;2.57;;;6.90;99.90;;;;;;6122464;23;20421;-71
2023/02/01 12:33:32;;;;;;;1.53;1.30;;;6.90;99.90;;;;;;6123113;23;20439;-71
2023/02/01 12:36:15;;;;;;;4.10;1.70;;;7.00;99.90;;;;;;6122566;23;20366;-70
2023/02/01 12:38:55;;;;;;;17.27;3.37;;;7.00;99.90;;;;;;6116796;23;20725;-72
2023/02/01 12:41:47;;;;;;;1.70;1.13;;;7.10;99.90;;;;;;6121961;23;20812;-71
2023/02/01 12:44:25;;;;;;;8.37;1.97;;;7.20;99.90;;;;;;6119593;23;20703;-72
2023/02/01 12:46:56;;;;;;;6.20;1.77;;;7.20;99.90;;;;;;6115724;23;20537;-72
2023/02/01 12:49:34;;;;;;;2.03;1.83;;;7.20;99.90;;;;;;6122010;23;21052;-71
2023/02/01 12:52:06;;;;;;;13.50;2.60;;;7.30;99.90;;;;;;6118645;23;20441;-71
2023/02/01 12:54:39;;;;;;;4.70;3.23;;;7.30;99.90;;;;;;6119852;23;20401;-72
2023/02/01 12:57:12;;;;;;;1.90;1.10;;;7.30;99.90;;;;;;6121789;23;20451;-71
2023/02/01 12:59:43;;;;;;;14.23;4.43;;;7.30;99.90;;;;;;6120204;23;20423;-71
2023/02/01 13:02:17;;;;;;;3.90;2.00;;;7.40;99.90;;;;;;6122717;23;20480;-72
2023/02/01 13:04:58;;;;;;;10.73;2.87;;;7.50;99.90;;;;;;6068481;23;20390;-71
2023/02/01 13:07:30;;;;;;;11.10;4.00;;;7.40;99.90;;;;;;6121796;23;20430;-71
2023/02/01 13:10:04;;;;;;;1.77;1.27;;;7.30;99.90;;;;;;6121338;23;20442;-71
2023/02/01 13:12:45;;;;;;;4.87;2.07;;;7.30;99.90;;;;;;6130175;23;20495;-71
2023/02/01 13:15:17;;;;;;;2.47;1.70;;;7.30;99.90;;;;;;6119256;23;20380;-71
2023/02/01 13:17:47;;;;;;;5.80;1.47;;;7.30;99.90;;;;;;6119820;23;20835;-72
2023/02/01 13:20:19;;;;;;;2.07;1.87;;;7.30;99.90;;;;;;6120140;23;20418;-72
2023/02/01 13:22:51;;;;;;;8.33;1.50;;;7.30;99.90;;;;;;6119515;23;20429;-72
2023/02/01 13:25:27;;;;;;;17.17;3.20;;;7.30;99.90;;;;;;6121061;23;20689;-71
2023/02/01 13:27:56;;;;;;;3.10;2.33;;;7.30;99.90;;;;;;6120551;23;20480;-73
2023/02/01 13:30:28;;;;;;;3.30;3.10;;;7.40;99.90;;;;;;6119397;23;20444;-71
2023/02/01 13:33:15;;;;;;;3.87;1.60;;;7.40;99.90;;;;;;6116014;23;20417;-71
2023/02/01 13:35:55;;;;;;;5.53;1.93;;;7.40;99.90;;;;;;6122330;23;20365;-72
2023/02/01 13:38:48;;;;;;;2.83;1.80;;;7.50;99.90;;;;;;6119758;23;20872;-72
2023/02/01 13:41:28;;;;;;;1.67;1.50;;;7.50;99.90;;;;;;6119274;23;20445;-70
2023/02/01 13:43:59;;;;;;;2.60;1.93;;;7.50;99.90;;;;;;6116997;23;20484;-71